sensor_id;sensor_type;location;lat;lon;timestamp;temperature;humidity
52024;DHT22;38038;45.922;13.604;2023-02-01T00:00:32;0.70;99.90
52024;DHT22;38038;45.922;13.604;2023-02-01T00:03:00;0.60;99.90
52024;DHT22;38038;45.922;13.604;2023-02-01T00:05:25;0.70;99.90
52024;DHT22;38038;45.922;13.604;2023-02-01T00:07:51;0.40;99.90
52024;DHT22;38038;45.922;13.604;2023-02-01T00:10:17;0.40;99.90
52024;DHT22;38038;45.922;13.604;2023-02-01T00:12:43;0.40;99.90
52024;DHT22;38038;45.922;13.604;2023-02-01T00:15:09;0.50;99.90
52024;DHT22;38038;45.922;13.604;2023-02-01T00:17:35;0.40;99.90
52024;DHT22;38038;45.922;13.604;2023-02-01T00:20:01;0.60;99.90
52024;DHT22;38038;45.922;13.604;2023-02-01T00:22:27;0.60;99.90
52024;DHT22;38038;45.922;13.604;2023-02-01T00:24:53;0.70;99.90
52024;DHT22;38038;45.922;13.604;2023-02-01T00:27:18;0.80;99.90
52024;DHT22;38038;45.922;13.604;2023-02-01T00:29:46;0.90;99.90
52024;DHT22;38038;45.922;13.604;2023-02-01T00:32:12;1.00;99.90
52024;DHT22;38038;45.922;13.604;2023-02-01T00:34:38;1.10;99.90
52024;DHT22;38038;45.922;13.604;2023-02-01T00:37:04;1.20;99.90
52024;DHT22;38038;45.922;13.604;2023-02-01T00:39:29;1.30;99.90
52024;DHT22;38038;45.922;13.604;2023-02-01T00:41:55;1.30;99.90
52024;DHT22;38038;45.922;13.604;2023-02-01T00:44:21;1.30;99.90
52024;DHT22;38038;45.922;13.604;2023-02-01T00:46:46;1.30;99.90
52024;DHT22;38038;45.922;13.604;2023-02-01T00:49:12;1.20;99.90
52024;DHT22;38038;45.922;13.604;2023-02-01T00:51:38;1.20;99.90
52024;DHT22;38038;45.922;13.604;2023-02-01T00:54:03;1.30;99.90
52024;DHT22;38038;45.922;13.604;2023-02-01T00:56:29;1.40;99.90
52024;DHT22;38038;45.922;13.604;2023-02-01T00:58:55;1.20;99.90
52024;DHT22;38038;45.922;13.604;2023-02-01T01:01:27;1.10;99.90
52024;DHT22;38038;45.922;13.604;2023-02-01T01:03:55;1.00;99.90
52024;DHT22;38038;45.922;13.604;2023-02-01T01:06:27;1.00;99.90
52024;DHT22;38038;45.922;13.604;2023-02-01T01:08:57;1.20;99.90
52024;DHT22;38038;45.922;13.604;2023-02-01T01:11:26;1.10;99.90
52024;DHT22;38038;45.922;13.604;2023-02-01T01:13:53;1.10;99.90
52024;DHT22;38038;45.922;13.604;2023-02-01T01:16:21;1.10;99.90
52024;DHT22;38038;45.922;13.604;2023-02-01T01:18:47;1.00;99.90
52024;DHT22;38038;45.922;13.604;2023-02-01T01:21:14;1.00;99.90
52024;DHT22;38038;45.922;13.604;2023-02-01T01:23:41;1.00;99.90
52024;DHT22;38038;45.922;13.604;2023-02-01T01:26:28;1.10;99.90
52024;DHT22;38038;45.922;13.604;2023-02-01T01:28:55;1.20;99.90
52024;DHT22;38038;45.922;13.604;2023-02-01T01:31:22;1.10;99.90
52024;DHT22;38038;45.922;13.604;2023-02-01T01:33:50;1.00;99.90
52024;DHT22;38038;45.922;13.604;2023-02-01T01:36:16;1.00;99.90
52024;DHT22;38038;45.922;13.604;2023-02-01T01:38:42;1.00;99.90
52024;DHT22;38038;45.922;13.604;2023-02-01T01:41:13;1.10;99.90
52024;DHT22;38038;45.922;13.604;2023-02-01T01:43:52;1.10;99.90
52024;DHT22;38038;45.922;13.604;2023-02-01T01:46:21;1.20;99.90
52024;DHT22;38038;45.922;13.604;2023-02-01T01:48:56;1.30;99.90
52024;DHT22;38038;45.922;13.604;2023-02-01T01:51:24;1.10;99.90
52024;DHT22;38038;45.922;13.604;2023-02-01T01:54:01;0.90;99.90
52024;DHT22;38038;45.922;13.604;2023-02-01T01:56:28;0.70;99.90
52024;DHT22;38038;45.922;13.604;2023-02-01T01:58:55;0.70;99.90
52024;DHT22;38038;45.922;13.604;2023-02-01T02:01:21;0.70;99.90
52024;DHT22;38038;45.922;13.604;2023-02-01T02:03:47;0.70;99.90
52024;DHT22;38038;45.922;13.604;2023-02-01T02:06:43;0.70;99.90
52024;DHT22;38038;45.922;13.604;2023-02-01T02:09:13;0.70;99.90
52024;DHT22;38038;45.922;13.604;2023-02-01T02:11:40;0.60;99.90
52024;DHT22;38038;45.922;13.604;2023-02-01T02:14:08;0.60;99.90
52024;DHT22;38038;45.922;13.604;2023-02-01T02:26:03;0.70;99.90
52024;DHT22;38038;45.922;13.604;2023-02-01T02:36:58;0.80;99.90
52024;DHT22;38038;45.922;13.604;2023-02-01T02:39:35;0.80;99.90
52024;DHT22;38038;45.922;13.604;2023-02-01T02:42:29;1.00;99.90
52024;DHT22;38038;45.922;13.604;2023-02-01T02:45:23;1.10;99.90
52024;DHT22;38038;45.922;13.604;2023-02-01T02:54:10;0.90;99.90
52024;DHT22;38038;45.922;13.604;2023-02-01T02:57:18;1.00;99.90
52024;DHT22;38038;45.922;13.604;2023-02-01T03:00:06;1.00;99.90
52024;DHT22;38038;45.922;13.604;2023-02-01T03:02:52;1.00;99.90
52024;DHT22;38038;45.922;13.604;2023-02-01T03:05:46;1.10;99.90
52024;DHT22;38038;45.922;13.604;2023-02-01T03:08:26;1.10;99.90
52024;DHT22;38038;45.922;13.604;2023-02-01T03:11:04;1.30;99.90
52024;DHT22;38038;45.922;13.604;2023-02-01T23:22:18;2.80;99.90
52024;DHT22;38038;45.922;13.604;2023-02-01T23:24:44;2.80;99.90
52024;DHT22;38038;45.922;13.604;2023-02-01T23:27:10;2.70;99.90
52024;DHT22;38038;45.922;13.604;2023-02-01T23:29:35;2.60;99.90
52024;DHT22;38038;45.922;13.604;2023-02-01T23:32:01;2.50;99.90
52024;DHT22;38038;45.922;13.604;2023-02-01T23:34:27;2.60;99.90
52024;DHT22;38038;45.922;13.604;2023-02-01T23:36:52;2.80;99.90
52024;DHT22;38038;45.922;13.604;2023-02-01T23:39:18;2.70;99.90
52024;DHT22;38038;45.922;13.604;2023-02-01T23:41:44;2.60;99.90
52024;DHT22;38038;45.922;13.604;2023-02-01T23:44:09;2.70;99.90
52024;DHT22;38038;45.922;13.604;2023-02-01T23:46:37;2.80;99.90
52024;DHT22;38038;45.922;13.604;2023-02-01T23:49:05;2.90;99.90
52024;DHT22;38038;45.922;13.604;2023-02-01T23:51:32;2.90;99.90
52024;DHT22;38038;45.922;13.604;2023-02-01T23:53:58;2.70;99.90
52024;DHT22;38038;45.922;13.604;2023-02-01T23:56:29;2.50;99.90
52024;DHT22;38038;45.922;13.604;2023-02-01T23:58:58;2.30;99.90
